Historique des mesures à Cassis (13260), France
Quotidien Résumé Juin 16, 2017 Unités:  Métrique    US   Métrique/US
« Précédent (Jour)
Suivant (Jour) »
Quotidien Hebdomadaire Mensuel Annuel Période au choix
  Maximum: Minimum: Moyenne:
Température: TemperatureC °C 25.3 °C 28.5 °C
Point de rosée: DewpointC °C 9.4 °C 15.4 °C
Humidité: Humidity % 25 % 44 %
Vitesse du vent: 0 km/h 0 km/h 17.7 km/h
Rafales: 0 km/h - -
Vent:- - SSW
Pression: PressurehPa hPa 1008.7 hPa -
Précipitations: 0.0 mm    
Historical Graphs
 
 
Mesures pour : Juin 16, 2017
Heure Temperature Point de rosée Pression Vent Vitesse du vent Rafales Humidité Pluie (par heure) Conditions
TemperatureC °C DewpointC °C PressurehPa hPa Calm     Humidity % HourlyPrecipMM mm SoftwareType W/m2
00:10 26.7 °C 20.1 °C 1011.7 hPa NW 8 km/h 8 km/h 67 % 0.0 mm open2300-1.11 W/m2
01:11 25.8 °C 19.9 °C 1011.7 hPa Calm     70 % 0.0 mm open2300-1.11 W/m2
02:10 25.3 °C 19.9 °C 1011.7 hPa Calm     72 % 0.0 mm open2300-1.11 W/m2
03:10 27.7 °C 18.4 °C 1011.7 hPa NNE 4.2 km/h 6.9 km/h 57 % 0.0 mm open2300-1.11 W/m2
04:10 25.8 °C 19.4 °C 1011.7 hPa Calm     68 % 0.0 mm open2300-1.11 W/m2
05:10 26.7 °C 18.3 °C 1011.7 hPa Calm     60 % 0.0 mm open2300-1.11 W/m2
06:10 26.4 °C 18.1 °C 1011.7 hPa NW 7.6 km/h 7.6 km/h 60 % 0.0 mm open2300-1.11 W/m2
07:10 26.6 °C 17.9 °C 1011.7 hPa NW 8.9 km/h 14 km/h 59 % 0.0 mm open2300-1.11 W/m2
08:11 28.3 °C 18.1 °C 1012.4 hPa NNW 10.9 km/h 19.6 km/h 54 % 0.0 mm open2300-1.11 W/m2
09:10 28.9 °C 18.4 °C 1012.4 hPa NW 38.8 km/h 38.8 km/h 53 % 0.0 mm open2300-1.11 W/m2
10:10 30.7 °C 18.8 °C 1012.1 hPa NW 17.9 km/h 17.9 km/h 49 % 0.0 mm open2300-1.11 W/m2
11:10 31.8 °C 18.7 °C 1011.7 hPa NNE 6.4 km/h 16.3 km/h 46 % 0.0 mm open2300-1.11 W/m2
12:10 32.8 °C 17.0 °C 1011.7 hPa WNW 17.4 km/h 19.2 km/h 39 % 0.0 mm open2300-1.11 W/m2
13:10 32.9 °C 15.7 °C 1011.7 hPa North 22 km/h 30.1 km/h 36 % 0.0 mm open2300-1.11 W/m2
14:10 33.6 °C 15.9 °C 1011.1 hPa NNW 19.2 km/h 39.9 km/h 35 % 0.0 mm open2300-1.11 W/m2
15:11 33.8 °C 16.1 °C 1010.4 hPa NW 33.6 km/h 45.4 km/h 35 % 0.0 mm open2300-1.11 W/m2
16:10 34.0 °C 14.9 °C 1010.0 hPa WNW 53.9 km/h 53.9 km/h 32 % 0.0 mm open2300-1.11 W/m2
17:11 33.5 °C 13.6 °C 1009.7 hPa NNE 20.3 km/h 21.6 km/h 30 % 0.0 mm open2300-1.11 W/m2
18:10 32.9 °C 10.1 °C 1009.4 hPa WNW 49.2 km/h 67.9 km/h 25 % 0.0 mm open2300-1.11 W/m2
19:10 32.1 °C 9.4 °C 1009.7 hPa NNW 26.7 km/h 54.4 km/h 25 % 0.0 mm open2300-1.11 W/m2
20:10 31.1 °C 10.3 °C 1009.0 hPa NNW 30.1 km/h 34.1 km/h 28 % 0.0 mm open2300-1.11 W/m2
21:10 29.6 °C 11.1 °C 1008.7 hPa North 17.4 km/h 51.5 km/h 32 % 0.0 mm open2300-1.11 W/m2
22:10 28.5 °C 12.3 °C 1009.4 hPa North 46.8 km/h 55.7 km/h 37 % 0.0 mm open2300-1.11 W/m2
23:10 27.9 °C 12.7 °C 1009.7 hPa NE 2.9 km/h 6.4 km/h 39 % 0.0 mm open2300-1.11 W/m2
Observations météo à CASSIS
WU-History script by Weather Underground - 1 mb